Tiempo atmosférico en la estación meteorológica de Villarino De Los Aires, Salamanca (700 m.)



Fecha
DESCASC
Temp. máxima en grados centígrados (hora)
DESCASC
Temp. mínima en grados centígrados (hora)
DESCASC
Temp. media en grados centígrados
DESCASC
Racha de viento máxima en m/sg (hora)
DESCASC
Velocidad máxima media en intervalos de 10 minutos(hora)
DESCASC
Precipitaciones diarias en mm
DESCASC
Precipitaciones de 00:00 a 06:00 en mm
DESCASC
Precipitaciones de 06:00 a 12:00 en mm
DESCASC
Precipitaciones de 12:00 a 18:00 en mm
DESCASC
Precipitaciones de 18:00 a 24:00 en mm
DESCASC
23-05-2020 30.1 (18:40) 13.5 (07:00) 21.8 7.78 (23:00) 4.44 (01:00) 0 0 0 0 0
22-05-2020 28.9 (17:00) 12.8 (07:40) 20.8 8.06 (17:40) 5.28 (18:20) 0 0 0 0 0
21-05-2020 29.9 (17:40) 13.2 (00:00) 21.5 8.61 (16:20) 5.56 (17:30) 0 0 0 0 0
20-05-2020 30.5 (18:10) 11 (00:00) 20.8 6.67 (22:40) 4.44 (22:50) 0 0 0 0 0
19-05-2020 29.3 (19:20) 10.2 (07:00) 19.7 7.22 (14:40) 3.89 (10:40) 0 0 0 0 0
18-05-2020 28 (20:30) 7.6 (00:00) 17.8 11.67 (18:50) 3.33 (22:00) 0 0 0 0 0
17-05-2020 24.2 (19:50) 6.7 (00:00) 15.5 10 (02:50) 5.56 (02:50) 0 0 0 0 0
16-05-2020 20.9 (19:40) 7.4 (00:00) 14.1 12.5 (00:10) 6.94 (00:10) 0 0 0 0 0
15-05-2020 17.6 (17:10) 9.7 (23:59) 13.7 12.5 (22:50) 7.22 (23:00) 0.4 0 0.4 0 0
14-05-2020 15 (19:30) 7.6 (00:00) 11.3 8.33 (06:20) 4.17 (06:20) 4.8 0 3.6 1.2 0
13-05-2020 18.3 (19:00) 10 (00:00) 14.1 8.89 (15:00) 5 (16:10) 0 0 0 0 0
12-05-2020 18.5 (15:20) 10.1 (06:50) 14.3 5.83 (23:10) 3.89 (06:50) 0 0 0 0 0
11-05-2020 18.3 (15:40) 8.6 (00:00) 13.4 9.44 (16:50) 4.72 (16:50) 8.4 0 0 8 0.4
10-05-2020 17.7 (18:20) 7 (00:00) 12.4 10 (18:20) 6.39 (18:10) 0.2 0 0.2 0 0
09-05-2020 19.1 (17:20) 9.9 (21:40) 14.5 11.39 (20:10) 6.39 (20:40) 0.4 0 0 0 0.4
08-05-2020 24.4 (18:00) 13.8 (00:00) 19.1 9.17 (17:20) 5.56 (10:00) 11.2 8.8 2.4 0 0
07-05-2020 26.4 (14:50) 10.3 (00:00) 18.3 7.22 (12:10) 4.44 (11:20) 0 0 0 0 0
06-05-2020 24.2 (19:10) 9.6 (00:00) 16.9 5.83 (17:00) 3.61 (00:20) 0 0 0 0 0
05-05-2020 21 (19:20) 9.1 (00:00) 15.1 9.72 (17:40) 5.28 (01:10) 0 0 0 0 0
04-05-2020 25 (13:20) 13.1 (00:00) 19.1 16.67 (18:30) 10 (16:30) 0 0 0 0 0
03-05-2020 27.4 (16:40) 9.4 (07:30) 18.4 8.06 (17:20) 4.72 (17:50) 0 0 0 0 0
02-05-2020 23.9 (19:30) 11.2 (04:20) 17.5 9.17 (18:30) 5.28 (17:30) 0 0 0 0 0
01-05-2020 20.3 (16:20) 11.1 (00:00) 15.7 14.44 (10:30) 8.61 (13:40) 0 0 0 0 0
30-04-2020 14 (15:30) 7.9 (05:20) 11 12.5 (10:30) 8.06 (15:40) 1.2 1 0.2 0 0
29-04-2020 15 (17:10) 6.9 (00:00) 11 15.83 (17:00) 10 (16:40) 0.2 0 0 0.2 0
28-04-2020 15.3 (17:10) 6.2 (05:00) 10.8 12.22 (18:10) 8.06 (18:10) 0.2 0 0.2 0 0
27-04-2020 15.1 (18:00) 8 (00:00) 11.6 11.67 (18:30) 7.22 (18:30) 0.6 0 0.6 0 0
26-04-2020 15.8 (15:30) 8.8 (07:20) 12.3 7.5 (16:10) 5.28 (16:10) 0.2 0 0 0.2 0

Gráficas

Temp. máximas Temp. mínimas Temp. medias Precipitaciones Rachas de viento máximas Velocidades máximas media en intervalos de 10 minutos

Datos horarios

Fecha y hora oficial Temperatura (ºC) Velocidad del viento (km/h) Dirección del viento Racha (km/h) Dirección de racha Precipitación (mm) Presión (hPa) Tendencia (hPa) Humedad (%)
2020-05-25 23:00:00 21.5 20 Este 35 Este 0 -- -- 54
2020-05-25 22:00:00 23.8 14 Este 26 Este 0 -- -- 43
2020-05-25 21:00:00 27.4 12 Nordeste 18 Nordeste 0 -- -- 38
2020-05-25 20:00:00 28.9 12 Nordeste 19 Este 0 -- -- 37
2020-05-25 19:00:00 29.9 10 Este 22 Nordeste 0 -- -- 36
2020-05-25 18:00:00 30.5 9 Este 20 Este 0 -- -- 32
2020-05-25 17:00:00 29.5 13 Este 22 Sudeste 0 -- -- 35
2020-05-25 16:00:00 29.4 10 Este 25 Este 0 -- -- 34
2020-05-25 15:00:00 27.9 8 Este 23 Nordeste 0 -- -- 37
2020-05-25 14:00:00 26.6 11 Este 25 Este 0 -- -- 41
2020-05-25 13:00:00 25.1 11 Este 20 Nordeste 0 -- -- 47
2020-05-25 12:00:00 22.4 11 Nordeste 19 Este 0 -- -- 54
2020-05-25 11:00:00 19.7 13 Nordeste 23 Este 0 -- -- 62
2020-05-25 10:00:00 17.4 14 Este 23 Nordeste 0 -- -- 67
2020-05-25 09:00:00 15.2 12 Nordeste 22 Este 0 -- -- 73
2020-05-25 08:00:00 13.7 7 Nordeste 18 Este 0 -- -- 81
2020-05-25 07:00:00 12.4 9 Este 14 Este 0 -- -- 85
2020-05-25 06:00:00 13 6 Nordeste 12 Nordeste 0 -- -- 83
2020-05-25 05:00:00 14.2 7 Nordeste 12 Nordeste 0 -- -- 80
2020-05-25 04:00:00 15.7 5 Este 9 Este 0 -- -- 77
2020-05-25 03:00:00 16.8 4 Nordeste 6 Nordeste 0 -- -- 75
2020-05-25 02:00:00 18.8 7 Este 14 Nordeste 0 -- -- 69
2020-05-25 01:00:00 19.4 0 Calma 5 Noroeste 0 -- -- 66
2020-05-25 00:00:00 20.7 2 Este 4 Norte 0 -- -- 60
2020-05-24 23:00:00 21.3 0 Calma 10 Sudoeste 0 -- -- 58
2020-05-24 22:00:00 22.8 9 Sudoeste 11 Sudoeste 0 -- -- 54
2020-05-24 21:00:00 25.4 8 Sur 13 Sur 0 -- -- 50
2020-05-24 20:00:00 27.6 6 Sudoeste 13 Oeste 0 -- -- 43
2020-05-24 19:00:00 29.8 6 Noroeste 14 Noroeste 0 -- -- 39
2020-05-24 18:00:00 29 8 Noroeste 15 Noroeste 0 -- -- 39
2020-05-24 17:00:00 28.6 6 Sudeste 15 Nordeste 0 -- -- 36
2020-05-24 16:00:00 27.4 9 Este 21 Nordeste 0 -- -- 34
2020-05-24 15:00:00 25.7 12 Este 21 Este 0 -- -- 38
2020-05-24 14:00:00 24 10 Nordeste 23 Nordeste 0 -- -- 45
2020-05-24 13:00:00 21.3 13 Nordeste 25 Nordeste 0 -- -- 49
2020-05-24 12:00:00 19.7 11 Este 24 Nordeste 0 -- -- 54
2020-05-24 11:00:00 16.4 15 Este 28 Nordeste 0 -- -- 58
2020-05-24 10:00:00 14.1 17 Nordeste 32 Nordeste 0 -- -- 60
2020-05-24 09:00:00 12.2 17 Nordeste 28 Nordeste 0 -- -- 64
2020-05-24 08:00:00 10.7 15 Nordeste 30 Este 0 -- -- 70
2020-05-24 07:00:00 9.6 10 Nordeste 20 Nordeste 0 -- -- 82
2020-05-24 06:00:00 9.9 10 Nordeste 23 Este 0 -- -- 86
2020-05-24 05:00:00 10.7 15 Nordeste 26 Nordeste 0 -- -- 82
2020-05-24 04:00:00 11.5 17 Nordeste 28 Nordeste 0 -- -- 81
2020-05-24 03:00:00 12.7 18 Nordeste 38 Nordeste 0 -- -- 79
2020-05-24 02:00:00 14.8 17 Este 32 Este 0 -- -- 73
2020-05-24 01:00:00 16.9 20 Este 34 Este 0 -- -- 71
2020-05-24 00:00:00 18.4 12 Este 26 Este 0 -- -- 69
2020-05-23 23:00:00 20.1 13 Este 28 Este 0 -- -- 64
2020-05-23 22:00:00 21.2 7 Sudeste 12 Sudeste 0 -- -- 55
2020-05-23 21:00:00 26.4 6 Oeste 13 Sudoeste 0 -- -- 42
2020-05-23 20:00:00 27.6 6 Noroeste 13 Sudeste 0 -- -- 40
2020-05-23 19:00:00 28.8 5 Este 24 Sur 0 -- -- 41
2020-05-23 18:00:00 28.6 6 Este 17 Noroeste 0 -- -- 40
2020-05-23 17:00:00 29 4 Sur 22 Oeste 0 -- -- 39
2020-05-23 16:00:00 28.2 6 Nordeste 15 Nordeste 0 -- -- 41
2020-05-23 15:00:00 26.4 5 Nordeste 15 Noroeste 0 -- -- 42
2020-05-23 14:00:00 25.2 5 Noroeste 14 Noroeste 0 -- -- 46
2020-05-23 13:00:00 24.2 5 Nordeste 14 Noroeste 0 -- -- 50
2020-05-23 12:00:00 22.6 4 Norte 12 Nordeste 0 -- -- 51
2020-05-23 11:00:00 20.1 6 Norte 12 Norte 0 -- -- 63
2020-05-23 10:00:00 17.6 5 Oeste 14 Oeste 0 -- -- 77
2020-05-23 09:00:00 16 10 Oeste 14 Noroeste 0 -- -- 86
2020-05-23 08:00:00 15.1 5 Sudoeste 14 Sudoeste 0 -- -- 89
2020-05-23 07:00:00 13.5 5 Oeste 21 Sur 0 -- -- 95
2020-05-23 06:00:00 14.1 11 Sudoeste 15 Sudoeste 0 -- -- 94
2020-05-23 05:00:00 14.9 9 Sudoeste 17 Sudoeste 0 -- -- 91
2020-05-23 04:00:00 15.6 10 Oeste 18 Oeste 0 -- -- 89
2020-05-23 03:00:00 16.2 9 Oeste 16 Oeste 0 -- -- 84
2020-05-23 02:00:00 17.1 12 Oeste 21 Oeste 0 -- -- 81
2020-05-23 01:00:00 18.6 16 Oeste 21 Oeste 0 -- -- 72
2020-05-23 00:00:00 20 14 Oeste 26 Oeste 0 -- -- 63
2020-05-22 23:00:00 21.2 15 Oeste 24 Oeste 0 -- -- 54
2020-05-22 22:00:00 22.6 13 Oeste 25 Noroeste 0 -- -- 51
2020-05-22 21:00:00 26.2 13 Oeste 22 Oeste 0 -- -- 46
2020-05-22 20:00:00 27.5 14 Oeste 29 Oeste 0 -- -- 40
2020-05-22 19:00:00 28 16 Oeste 29 Oeste 0 -- -- 37
2020-05-22 18:00:00 28 19 Oeste 29 Oeste 0 -- -- 42
2020-05-22 17:00:00 28.9 12 Noroeste 24 Oeste 0 -- -- 42
2020-05-22 16:00:00 28.1 12 Oeste 23 Oeste 0 -- -- 42
2020-05-22 15:00:00 27.2 14 Noroeste 24 Noroeste 0 -- -- 44
2020-05-22 14:00:00 27.1 5 Oeste 15 Oeste 0 -- -- 43
2020-05-22 13:00:00 25.7 8 Noroeste 14 Noroeste 0 -- -- 50
2020-05-22 12:00:00 22.4 5 Noroeste 13 Norte 0 -- -- 65
2020-05-22 11:00:00 18.8 5 Noroeste 11 Oeste 0 -- -- 79
2020-05-22 10:00:00 16.3 5 Sudoeste 9 Sudoeste 0 -- -- 86
2020-05-22 09:00:00 14.3 5 Sur 9 Oeste 0 -- -- 94
2020-05-22 08:00:00 13 5 Sudoeste 17 Sur 0 -- -- 97
2020-05-22 07:00:00 13.3 15 Sudoeste 21 Sudoeste 0 -- -- 94
2020-05-22 06:00:00 14.7 11 Sudoeste 17 Sudoeste 0 -- -- 92
2020-05-22 05:00:00 15.3 11 Sudoeste 19 Sudoeste 0 -- -- 91
2020-05-22 04:00:00 16 13 Sudoeste 17 Sudoeste 0 -- -- 89
2020-05-22 03:00:00 17.1 12 Sudoeste 16 Sudoeste 0 -- -- 85
2020-05-22 02:00:00 17.9 11 Sudoeste 17 Sudoeste 0 -- -- 80
2020-05-22 01:00:00 18.5 8 Sudoeste 21 Oeste 0 -- -- 77
2020-05-22 00:00:00 20.4 13 Oeste 19 Oeste 0 -- -- 72
2020-05-21 23:00:00 21.6 13 Sudoeste 23 Sudoeste 0 -- -- 66
2020-05-21 22:00:00 22.8 14 Sudoeste 26 Sudoeste 0 -- -- 45
2020-05-21 21:00:00 23.9 12 Sur 21 Sudoeste 0 -- -- 40
2020-05-21 20:00:00 27.6 12 Sudoeste 31 Oeste 0 -- -- 33
2020-05-21 19:00:00 28.5 16 Sudoeste 28 Oeste 0 -- -- 37
2020-05-21 18:00:00 27.9 14 Sudoeste 29 Oeste 0 -- -- 41
2020-05-21 17:00:00 29.2 9 Oeste 31 Sudoeste 0 -- -- 42
2020-05-21 16:00:00 29.1 12 Sudoeste 24 Sudoeste 0 -- -- 37
2020-05-21 15:00:00 28.6 6 Sudoeste 25 Oeste 0 -- -- 44
2020-05-21 14:00:00 27.1 5 Norte 14 Norte 0 -- -- 48
2020-05-21 13:00:00 26.3 4 Este 15 Este 0 -- -- 48
2020-05-21 12:00:00 23.3 6 Este 14 Este 0 -- -- 55
2020-05-21 11:00:00 20.3 6 Nordeste 12 Norte 0 -- -- 62
2020-05-21 10:00:00 18.5 6 Nordeste 15 Este 0 -- -- 67
2020-05-21 09:00:00 17.2 8 Nordeste 15 Este 0 -- -- 70
2020-05-21 08:00:00 14.7 4 Sudeste 6 Sudeste 0 -- -- 93
2020-05-21 07:00:00 13.5 3 Este 4 Este 0 -- -- 95
2020-05-21 06:00:00 13.9 0 Calma 4 Noroeste 0 -- -- 92
2020-05-21 05:00:00 15 3 Oeste 10 Oeste 0 -- -- 88
2020-05-21 04:00:00 16.7 9 Sudoeste 14 Sudoeste 0 -- -- 82
2020-05-21 03:00:00 17.4 9 Sudoeste 15 Sudoeste 0 -- -- 79
2020-05-21 02:00:00 18.7 13 Sudoeste 17 Sudoeste 0 -- -- 74
2020-05-21 01:00:00 19.6 11 Oeste 15 Oeste 0 -- -- 69
2020-05-21 00:00:00 20.2 9 Oeste 22 Noroeste 0 -- -- 66
2020-05-20 23:00:00 21.6 15 Oeste 24 Oeste 0 -- -- 59
2020-05-20 22:00:00 21.7 7 Sur 8 Sur 0 -- -- 44
2020-05-20 21:00:00 26.5 0 Calma 9 Oeste 0 -- -- 39
2020-05-20 20:00:00 27.9 7 Oeste 19 Oeste 0 -- -- 32
2020-05-20 19:00:00 29.6 8 Oeste 15 Oeste 0 -- -- 35
2020-05-20 18:00:00 29.8 4 Nordeste 16 Este 0 -- -- 32
2020-05-20 17:00:00 29.1 7 Este 16 Sudeste 0 -- -- 33
2020-05-20 16:00:00 28 7 Sudeste 17 Sudeste 0 -- -- 34
2020-05-20 15:00:00 27.5 5 Norte 17 Nordeste 0 -- -- 37
2020-05-20 14:00:00 26.6 10 Este 19 Este 0 -- -- 38
2020-05-20 13:00:00 25.3 7 Nordeste 17 Nordeste 0 -- -- 34
2020-05-20 12:00:00 22.8 11 Este 18 Este 0 -- -- 48
2020-05-20 11:00:00 20.1 11 Nordeste 19 Nordeste 0 -- -- 58
2020-05-20 10:00:00 16.7 6 Nordeste 14 Este 0 -- -- 71
2020-05-20 09:00:00 15.2 8 Nordeste 12 Nordeste 0 -- -- 74
2020-05-20 08:00:00 13.2 4 Este 8 Este 0 -- -- 79
2020-05-20 07:00:00 11 0 Calma 4 Este 0 -- -- 86
2020-05-20 06:00:00 12.7 6 Este 8 Este 0 -- -- 83
2020-05-20 05:00:00 12.5 2 Este 4 Nordeste 0 -- -- 80
2020-05-20 04:00:00 15.1 4 Este 6 Este 0 -- -- 59
2020-05-20 03:00:00 14.9 2 Este 6 Este 0 -- -- 59
2020-05-20 02:00:00 16.6 3 Este 4 Este 0 -- -- 57
2020-05-20 01:00:00 18 0 Calma 5 Este 0 -- -- 51
2020-05-20 00:00:00 19.2 3 Este 6 Sur 0 -- -- 46
2020-05-19 23:00:00 20 7 Sudeste 14 Sudeste 0 -- -- 43
2020-05-19 22:00:00 20.9 8 Sudeste 10 Sudeste 0 -- -- 43
2020-05-19 21:00:00 24.7 8 Sudeste 9 Sudeste 0 -- -- 42
2020-05-19 20:00:00 27.9 6 Este 17 Sudeste 0 -- -- 34
2020-05-19 19:00:00 28.5 9 Este 16 Este 0 -- -- 33
2020-05-19 18:00:00 27.9 5 Sudeste 18 Este 0 -- -- 33
2020-05-19 17:00:00 27.7 8 Este 23 Este 0 -- -- 35
2020-05-19 16:00:00 26.7 9 Este 20 Este 0 -- -- 39
2020-05-19 15:00:00 25.4 10 Este 26 Este 0 -- -- 40
2020-05-19 14:00:00 24.7 8 Este 20 Sudeste 0 -- -- 40
2020-05-19 13:00:00 23.1 12 Este 24 Este 0 -- -- 43
2020-05-19 12:00:00 20.9 12 Nordeste 21 Este 0 -- -- 49
2020-05-19 11:00:00 18.4 14 Nordeste 23 Este 0 -- -- 52
2020-05-19 10:00:00 16.4 12 Nordeste 19 Este 0 -- -- 57
2020-05-19 09:00:00 13.5 7 Este 12 Este 0 -- -- 72
2020-05-19 08:00:00 12 4 Este 9 Nordeste 0 -- -- 74
2020-05-19 07:00:00 10.2 3 Nordeste 9 Este 0 -- -- 81
2020-05-19 06:00:00 12.5 8 Este 10 Este 0 -- -- 73
2020-05-19 05:00:00 12.7 7 Este 9 Este 0 -- -- 70
2020-05-19 04:00:00 14.1 3 Sudeste 12 Sudeste 0 -- -- 67
2020-05-19 03:00:00 14.8 6 Sudeste 10 Sudeste 0 -- -- 69
2020-05-19 02:00:00 15.6 0 Calma 9 Oeste 0 -- -- 65
2020-05-19 01:00:00 16.5 5 Sur 13 Oeste 0 -- -- 61
2020-05-19 00:00:00 17.8 2 Noroeste 10 Sudoeste 0 -- -- 55
2020-05-18 23:00:00 19.6 8 Sudoeste 12 Sudoeste 0 -- -- 51
2020-05-18 22:00:00 20.2 12 Sur 13 Sur 0 -- -- 51
2020-05-18 21:00:00 24.5 6 Sur 9 Sudeste 0 -- -- 40
2020-05-18 20:00:00 27.4 4 Norte 12 Norte 0 -- -- 33
2020-05-18 19:00:00 27.6 4 Norte 42 Noroeste 0 -- -- 35
2020-05-18 18:00:00 27.2 6 Noroeste 19 Oeste 0 -- -- 33
2020-05-18 17:00:00 26.3 4 Noroeste 15 Oeste 0 -- -- 35
2020-05-18 16:00:00 25.7 8 Oeste 14 Noroeste 0 -- -- 35
2020-05-18 15:00:00 24.7 5 Nordeste 14 Nordeste 0 -- -- 40
2020-05-18 14:00:00 23.1 7 Noroeste 19 Oeste 0 -- -- 42
2020-05-18 13:00:00 23 4 Sudeste 15 Nordeste 0 -- -- 42
2020-05-18 12:00:00 20.5 8 Nordeste 14 Nordeste 0 -- -- 49
2020-05-18 11:00:00 17.3 6 Nordeste 13 Nordeste 0 -- -- 61
2020-05-18 10:00:00 14.1 6 Nordeste 9 Nordeste 0 -- -- 71
2020-05-18 09:00:00 11.3 0 Calma 5 Noroeste 0 -- -- 76
2020-05-18 08:00:00 9.5 0 Calma 2 Este 0 -- -- 82
2020-05-18 07:00:00 8.6 2 Nordeste 9 Sudeste 0 -- -- 81
2020-05-18 06:00:00 8.1 3 Este 4 Sudeste 0 -- -- 81
2020-05-18 05:00:00 10.2 0 Calma 5 Sudeste 0 -- -- 69
2020-05-18 04:00:00 10.8 0 Calma 3 Sur 0 -- -- 67
2020-05-18 03:00:00 11.9 0 Calma 5 Oeste 0 -- -- 61
2020-05-18 02:00:00 13 0 Calma 4 Oeste 0 -- -- 56
2020-05-18 01:00:00 14.3 7 Sur 12 Sur 0 -- -- 50
2020-05-18 00:00:00 14.9 9 Sur 10 Sur 0 -- -- 48
2020-05-17 23:00:00 15.7 6 Sudeste 12 Sudeste 0 -- -- 45
2020-05-17 22:00:00 16.4 9 Sudeste 10 Sudeste 0 -- -- 45
2020-05-17 21:00:00 21 6 Sudeste 12 Este 0 -- -- 37
2020-05-17 20:00:00 23.5 8 Este 14 Nordeste 0 -- -- 32
2020-05-17 19:00:00 23.9 8 Este 19 Nordeste 0 -- -- 32
2020-05-17 18:00:00 22.9 10 Nordeste 21 Nordeste 0 -- -- 32
2020-05-17 17:00:00 22 9 Norte 26 Nordeste 0 -- -- 34
2020-05-17 16:00:00 20.9 11 Nordeste 26 Nordeste 0 -- -- 37
2020-05-17 15:00:00 20.1 11 Este 23 Nordeste 0 -- -- 43
2020-05-17 14:00:00 18.4 9 Nordeste 24 Nordeste 0 -- -- 48
2020-05-17 13:00:00 17.2 12 Nordeste 24 Este 0 -- -- 51
2020-05-17 12:00:00 15.5 12 Este 25 Este 0 -- -- 57
2020-05-17 11:00:00 13.3 15 Este 28 Este 0 -- -- 61
2020-05-17 10:00:00 11.7 15 Este 27 Este 0 -- -- 65
2020-05-17 09:00:00 9.3 18 Nordeste 29 Nordeste 0 -- -- 73
2020-05-17 08:00:00 7.7 9 Este 15 Nordeste 0 -- -- 80
2020-05-17 07:00:00 6.8 9 Este 20 Este 0 -- -- 82
2020-05-17 06:00:00 7.3 12 Este 22 Este 0 -- -- 81
2020-05-17 05:00:00 8 10 Nordeste 18 Nordeste 0 -- -- 78
2020-05-17 04:00:00 9.4 11 Nordeste 27 Este 0 -- -- 72
2020-05-17 03:00:00 9.8 18 Este 36 Este 0 -- -- 72
2020-05-17 02:00:00 10.2 18 Este 32 Este 0 -- -- 76
2020-05-17 01:00:00 11.1 18 Este 33 Este 0 -- -- 75
2020-05-17 00:00:00 12 4 Nordeste 17 Sudeste 0 -- -- 75
2020-05-16 23:00:00 13.1 10 Sudeste 19 Sudeste 0 -- -- 69
2020-05-16 22:00:00 14.4 10 Sudeste 19 Este 0 -- -- 61
2020-05-16 21:00:00 18.6 11 Este 24 Nordeste 0 -- -- 48
2020-05-16 20:00:00 20.2 12 Nordeste 22 Nordeste 0 -- -- 46
2020-05-16 19:00:00 20.6 12 Nordeste 24 Norte 0 -- -- 49
2020-05-16 18:00:00 19.9 13 Nordeste 22 Nordeste 0 -- -- 51
2020-05-16 17:00:00 18.8 14 Nordeste 27 Este 0 -- -- 51
2020-05-16 16:00:00 18.5 14 Nordeste 26 Este 0 -- -- 55
2020-05-16 15:00:00 18.7 18 Este 29 Este 0 -- -- 54
2020-05-16 14:00:00 17.2 13 Nordeste 30 Este 0 -- -- 57
2020-05-16 13:00:00 15.7 17 Este 33 Este 0 -- -- 61
2020-05-16 12:00:00 14 19 Este 30 Este 0 -- -- 65
2020-05-16 11:00:00 12.3 15 Este 32 Nordeste 0 -- -- 69
2020-05-16 10:00:00 10.4 21 Nordeste 35 Nordeste 0 -- -- 73
2020-05-16 09:00:00 8.9 17 Nordeste 27 Nordeste 0 -- -- 78
2020-05-16 08:00:00 7.8 13 Nordeste 37 Nordeste 0 -- -- 79
2020-05-16 07:00:00 7.7 25 Este 36 Este 0 -- -- 78
2020-05-16 06:00:00 8.1 21 Nordeste 35 Este 0 -- -- 73
2020-05-16 05:00:00 7.8 17 Nordeste 37 Este 0 -- -- 77
2020-05-16 04:00:00 7.5 20 Nordeste 38 Este 0 -- -- 82
2020-05-16 03:00:00 7.8 19 Nordeste 41 Este 0 -- -- 82
2020-05-16 02:00:00 8.5 22 Este 39 Este 0 -- -- 80
2020-05-16 01:00:00 9.2 22 Este 45 Este 0 -- -- 80
2020-05-16 00:00:00 9.7 22 Este 43 Este 0 -- -- 78
2020-05-15 23:00:00 10.8 26 Este 45 Este 0 -- -- 75
2020-05-15 22:00:00 12.1 21 Este 33 Nordeste 0 -- -- 71
2020-05-15 21:00:00 13.4 14 Nordeste 41 Este 0 -- -- 67
2020-05-15 20:00:00 14.3 14 Este 41 Este 0 -- -- 67
2020-05-15 19:00:00 14.9 22 Nordeste 37 Nordeste 0 -- -- 65
2020-05-15 18:00:00 15.4 16 Nordeste 31 Este 0 -- -- 67
2020-05-15 17:00:00 16.6 17 Nordeste 27 Este 0 -- -- 62
2020-05-15 16:00:00 17 13 Nordeste 30 Nordeste 0 -- -- 59
2020-05-15 15:00:00 15.7 16 Nordeste 35 Este 0 -- -- 64
2020-05-15 14:00:00 16.8 20 Este 33 Este 0 -- -- 59
2020-05-15 13:00:00 14.7 14 Nordeste 31 Nordeste 0 -- -- 68
2020-05-15 12:00:00 14.2 15 Este 27 Nordeste 0 -- -- 70
2020-05-15 11:00:00 12.4 13 Este 22 Este 0.2 -- -- 82
2020-05-15 10:00:00 10.6 9 Este 18 Este 0 -- -- 89
2020-05-15 09:00:00 9.8 11 Este 21 Sudeste 0.2 -- -- 92
2020-05-15 08:00:00 10.1 9 Este 19 Este 0 -- -- 86
2020-05-15 07:00:00 10 8 Nordeste 16 Nordeste 0 -- -- 90
2020-05-15 06:00:00 10.4 6 Este 18 Este 0 -- -- 93
2020-05-15 05:00:00 10.2 4 Nordeste 8 Este 0 -- -- 94
2020-05-15 04:00:00 9.8 3 Este 5 Nordeste 0 -- -- 92
2020-05-15 03:00:00 10.2 3 Nordeste 6 Nordeste 0 -- -- 89
2020-05-15 02:00:00 10.1 4 Este 5 Este 0 -- -- 88
2020-05-15 01:00:00 10.5 0 Calma 5 Este 0 -- -- 85
2020-05-15 00:00:00 10.8 2 Nordeste 6 Nordeste 0 -- -- 84
2020-05-14 23:00:00 11.1 4 Nordeste 7 Nordeste 0 -- -- 78
2020-05-14 22:00:00 11 2 Este 4 Norte 0 -- -- 77
2020-05-14 21:00:00 12.8 4 Norte 8 Noroeste 0 -- -- 72
2020-05-14 20:00:00 14.3 4 Norte 10 Norte 0 -- -- 71
2020-05-14 19:00:00 14.4 5 Nordeste 13 Nordeste 0 -- -- 67
2020-05-14 18:00:00 14.1 6 Norte 11 Norte 0 -- -- 71
2020-05-14 17:00:00 13.8 6 Norte 14 Noroeste 0 -- -- 74
2020-05-14 16:00:00 13 5 Norte 10 Norte 0 -- -- 78
2020-05-14 15:00:00 12.4 4 Oeste 9 Noroeste 0 -- -- 78
2020-05-14 14:00:00 10.1 3 Sudoeste 9 Sudoeste 0.4 -- -- 84
2020-05-14 13:00:00 10.3 3 Noroeste 10 Oeste 0.8 -- -- 89
2020-05-14 12:00:00 9.7 2 Sudoeste 8 Sur 0.8 -- -- 89
2020-05-14 11:00:00 9.2 2 Norte 7 Sudoeste 0.2 -- -- 94
2020-05-14 10:00:00 8.7 4 Sudeste 9 Sur 0.2 -- -- 92
2020-05-14 09:00:00 7.6 2 Sur 6 Sudoeste 1.8 -- -- 95
2020-05-14 08:00:00 7.6 3 Oeste 13 Sudoeste 0.6 -- -- 93
2020-05-14 07:00:00 8.2 5 Oeste 30 Sudoeste 0 -- -- 91
2020-05-14 06:00:00 10.1 11 Sudoeste 25 Sudoeste 0 -- -- 88
2020-05-14 05:00:00 10.4 11 Sur 21 Sur 0 -- -- 90
2020-05-14 04:00:00 10.1 3 Norte 8 Sudeste 0 -- -- 84
2020-05-14 03:00:00 10.3 3 Este 6 Norte 0 -- -- 82
2020-05-14 02:00:00 11.5 6 Sudeste 7 Sudeste 0 -- -- 76
2020-05-14 01:00:00 10.9 7 Sudeste 11 Sur 0 -- -- 78
2020-05-14 00:00:00 12.7 8 Sur 16 Sur 0 -- -- 69
2020-05-13 23:00:00 12.7 12 Sur 17 Sur 0 -- -- 66
2020-05-13 22:00:00 12.7 10 Sur 12 Sur 0 -- -- 68
2020-05-13 21:00:00 15.1 6 Sur 9 Sur 0 -- -- 63
2020-05-13 20:00:00 15.6 5 Sur 19 Sur 0 -- -- 63
2020-05-13 19:00:00 18.3 9 Sur 23 Sudoeste 0 -- -- 53
2020-05-13 18:00:00 17.4 13 Sur 28 Sudeste 0 -- -- 56
2020-05-13 17:00:00 15.7 13 Sur 27 Sur 0 -- -- 64
2020-05-13 16:00:00 15.7 15 Sur 27 Sur 0 -- -- 65
2020-05-13 15:00:00 15 17 Sur 32 Sudeste 0 -- -- 68
2020-05-13 14:00:00 15.6 14 Sudoeste 26 Sudoeste 0 -- -- 63
2020-05-13 13:00:00 16.3 10 Sudeste 23 Sudoeste 0 -- -- 67
2020-05-13 12:00:00 14.4 7 Sur 19 Sudoeste 0 -- -- 69
2020-05-13 11:00:00 13.8 12 Sudoeste 21 Oeste 0 -- -- 72
2020-05-13 10:00:00 12.4 6 Sudoeste 15 Sudoeste 0 -- -- 81
2020-05-13 09:00:00 11 11 Sudoeste 19 Sudoeste 0 -- -- 89
2020-05-13 08:00:00 10.5 6 Sur 19 Sur 0 -- -- 92
2020-05-13 07:00:00 10.2 8 Sur 19 Sudoeste 0 -- -- 93
2020-05-13 06:00:00 10.1 11 Sur 19 Sur 0 -- -- 93
2020-05-13 05:00:00 10.4 10 Sur 18 Sudoeste 0 -- -- 92
2020-05-13 04:00:00 10.6 9 Sudoeste 23 Sudoeste 0 -- -- 89
2020-05-13 03:00:00 10.8 12 Sudoeste 26 Sudoeste 0 -- -- 88
2020-05-13 02:00:00 11.1 12 Sudoeste 21 Sudoeste 0 -- -- 88
2020-05-13 01:00:00 11.3 9 Sur 19 Sudoeste 0 -- -- 88
2020-05-13 00:00:00 11.6 9 Sudoeste 21 Sudoeste 0 -- -- 85
2020-05-12 23:00:00 12.6 12 Sudoeste 20 Sudoeste 0 -- -- 79
2020-05-12 22:00:00 13.5 10 Sur 17 Sur 0 -- -- 76
2020-05-12 21:00:00 14.9 7 Sur 15 Sur 0 -- -- 69
2020-05-12 20:00:00 16.1 8 Sur 13 Sur 0 -- -- 64
2020-05-12 19:00:00 15.7 6 Sur 17 Sur 0 -- -- 63
2020-05-12 18:00:00 15.2 10 Sur 17 Sur 0 -- -- 66
2020-05-12 17:00:00 17.2 4 Noroeste 15 Oeste 0 -- -- 64
2020-05-12 16:00:00 16.5 7 Oeste 15 Oeste 0 -- -- 64
2020-05-12 15:00:00 17.9 6 Noroeste 13 Oeste 0 -- -- 61
2020-05-12 14:00:00 17.5 5 Norte 10 Nordeste 0 -- -- 64
2020-05-12 13:00:00 16.3 5 Noroeste 10 Norte 0 -- -- 69
2020-05-12 12:00:00 14.9 5 Noroeste 9 Noroeste 0 -- -- 77
2020-05-12 11:00:00 13.5 3 Noroeste 12 Noroeste 0 -- -- 86
2020-05-12 10:00:00 12 5 Oeste 10 Oeste 0 -- -- 94
2020-05-12 09:00:00 10.9 3 Sudoeste 4 Nordeste 0 -- -- 97
2020-05-12 08:00:00 10.1 2 Nordeste 16 Sur 0 -- -- 97
2020-05-12 07:00:00 10.1 11 Sur 18 Sur 0 -- -- 97
2020-05-12 06:00:00 10.7 8 Sudoeste 16 Sur 0 -- -- 96
2020-05-12 05:00:00 10.2 12 Sur 16 Sur 0 -- -- 98
2020-05-12 04:00:00 10.7 6 Sudoeste 13 Sudoeste 0 -- -- 96
2020-05-12 03:00:00 11.5 9 Sudoeste 15 Sudoeste 0 -- -- 94
2020-05-12 02:00:00 11.9 8 Sudoeste 16 Sudoeste 0 -- -- 95
2020-05-12 01:00:00 11.8 9 Sur 18 Sur 0 -- -- 95
2020-05-12 00:00:00 11.8 12 Sur 20 Sudoeste 0 -- -- 93
2020-05-11 23:00:00 12.3 12 Sur 19 Sudoeste 0 -- -- 92
2020-05-11 22:00:00 12 14 Sur 22 Sur 0.2 -- -- 92
2020-05-11 21:00:00 12.5 15 Sur 22 Sur 0.2 -- -- 88
2020-05-11 20:00:00 14.3 9 Sudoeste 18 Sur 0 -- -- 82
2020-05-11 19:00:00 17.9 3 Norte 12 Noroeste 0 -- -- 73
2020-05-11 18:00:00 16.1 6 Este 17 Sudoeste 0.8 -- -- 77
2020-05-11 17:00:00 11.1 14 Sudoeste 34 Sudoeste 7 -- -- 86
2020-05-11 16:00:00 17.3 5 Noroeste 24 Oeste 0 -- -- 66
2020-05-11 15:00:00 16.8 12 Sudoeste 27 Sudoeste 0.2 -- -- 65
2020-05-11 14:00:00 14.8 9 Sudoeste 23 Sudoeste 0 -- -- 75
2020-05-11 13:00:00 15.6 10 Sur 22 Sur 0 -- -- 64
2020-05-11 12:00:00 15.4 14 Sur 26 Sur 0 -- -- 66
2020-05-11 11:00:00 14.5 5 Oeste 16 Oeste 0 -- -- 76
2020-05-11 10:00:00 12.2 7 Sudoeste 18 Sur 0 -- -- 82
2020-05-11 09:00:00 11.1 11 Sur 20 Sur 0 -- -- 89
2020-05-11 08:00:00 9.6 3 Sudeste 15 Sudoeste 0 -- -- 95
2020-05-11 07:00:00 9.5 6 Sudoeste 15 Sur 0 -- -- 92
2020-05-11 06:00:00 9.4 8 Sur 17 Sur 0 -- -- 91
2020-05-11 05:00:00 9.1 9 Sur 16 Sur 0 -- -- 92
2020-05-11 04:00:00 9 13 Sur 23 Sur 0 -- -- 93
2020-05-11 03:00:00 8.6 14 Sur 21 Sur 0 -- -- 93
2020-05-11 02:00:00 9.5 14 Sur 21 Sur 0 -- -- 90
2020-05-11 01:00:00 9.9 12 Sudoeste 24 Sudoeste 0 -- -- 88
2020-05-11 00:00:00 11 16 Sudoeste 25 Sudoeste 0 -- -- 83
2020-05-10 23:00:00 12.2 13 Sudoeste 23 Sudoeste 0 -- -- 75
2020-05-10 22:00:00 12.9 11 Sudoeste 26 Sudoeste 0 -- -- 72
2020-05-10 21:00:00 14.5 19 Sudoeste 32 Sudoeste 0 -- -- 63
2020-05-10 20:00:00 16.4 17 Oeste 32 Oeste 0 -- -- 55
2020-05-10 19:00:00 17.2 21 Oeste 36 Oeste 0 -- -- 54
2020-05-10 18:00:00 17.3 17 Oeste 30 Oeste 0 -- -- 56
2020-05-10 17:00:00 17.1 18 Oeste 27 Oeste 0 -- -- 57
2020-05-10 16:00:00 16.9 21 Oeste 29 Oeste 0 -- -- 56
2020-05-10 15:00:00 15.2 16 Oeste 31 Noroeste 0 -- -- 56
2020-05-10 14:00:00 14 17 Oeste 29 Oeste 0 -- -- 62
2020-05-10 13:00:00 14.6 12 Noroeste 21 Oeste 0 -- -- 63
2020-05-10 12:00:00 14.1 9 Sudoeste 17 Oeste 0.2 -- -- 65
2020-05-10 11:00:00 11.5 4 Noroeste 15 Noroeste 0 -- -- 78
2020-05-10 10:00:00 10.8 6 Oeste 13 Oeste 0 -- -- 84
2020-05-10 09:00:00 8.9 8 Sudoeste 15 Sur 0 -- -- 90
2020-05-10 08:00:00 7.6 10 Sur 16 Sudoeste 0 -- -- 96
2020-05-10 07:00:00 7.1 13 Sur 18 Sur 0 -- -- 97
2020-05-10 06:00:00 7.5 9 Sur 18 Sudoeste 0 -- -- 95
2020-05-10 05:00:00 8.4 9 Sudoeste 19 Sudoeste 0 -- -- 93
2020-05-10 04:00:00 9 12 Sudoeste 21 Sudoeste 0 -- -- 92
2020-05-10 03:00:00 9 8 Sudoeste 17 Sudoeste 0 -- -- 94
2020-05-10 02:00:00 9.4 9 Sudoeste 23 Sudoeste 0 -- -- 93
2020-05-10 01:00:00 9.3 12 Sudoeste 22 Sudoeste 0 -- -- 92
2020-05-10 00:00:00 9.9 14 Sudoeste 24 Sudoeste 0 -- -- 91
2020-05-09 23:00:00 10.1 14 Sur 27 Sur 0 -- -- 92
2020-05-09 22:00:00 9.9 14 Sudoeste 32 Sudoeste 0.4 -- -- 91
2020-05-09 21:00:00 11.8 17 Oeste 41 Sudoeste 0 -- -- 86
2020-05-09 20:00:00 15.1 21 Sudoeste 40 Sudoeste 0 -- -- 63
2020-05-09 19:00:00 17.2 18 Sur 32 Sur 0 -- -- 53
2020-05-09 18:00:00 19 19 Sudoeste 32 Sur 0 -- -- 49
2020-05-09 17:00:00 18 16 Sur 33 Sudoeste 0 -- -- 52
2020-05-09 16:00:00 17.9 14 Sur 30 Sur 0 -- -- 53
2020-05-09 15:00:00 16.7 9 Sur 28 Sur 0 -- -- 58
2020-05-09 14:00:00 16.5 16 Sudoeste 33 Oeste 0 -- -- 59
2020-05-09 13:00:00 16.1 19 Sudoeste 31 Sudoeste 0 -- -- 60
2020-05-09 12:00:00 14.8 13 Sudoeste 27 Sudoeste 0 -- -- 66
2020-05-09 11:00:00 13.3 15 Sudoeste 35 Sur 0 -- -- 80
2020-05-09 10:00:00 13.5 13 Sur 22 Sudoeste 0 -- -- 84
2020-05-09 09:00:00 12.8 12 Sur 22 Sudoeste 0 -- -- 89
2020-05-09 08:00:00 12.5 8 Sur 14 Sur 0 -- -- 93
2020-05-09 07:00:00 12.1 6 Sur 13 Sur 0 -- -- 95
2020-05-09 06:00:00 12.1 6 Sur 15 Sudoeste 0 -- -- 95
2020-05-09 05:00:00 12.2 9 Sur 19 Sur 0 -- -- 95
2020-05-09 04:00:00 12.2 14 Sur 18 Sur 0 -- -- 95
2020-05-09 03:00:00 12.1 12 Sur 18 Sur 0 -- -- 94
2020-05-09 02:00:00 13.7 9 Sudoeste 15 Sudoeste 0 -- -- 88
2020-05-09 01:00:00 14.8 11 Oeste 16 Oeste 0 -- -- 83
2020-05-09 00:00:00 15.4 8 Oeste 20 Sudoeste 0 -- -- 76
2020-05-08 23:00:00 17.3 15 Oeste 26 Sudoeste 0 -- -- 65
2020-05-08 22:00:00 17.8 13 Sudoeste 20 Sudoeste 0 -- -- 61
2020-05-08 21:00:00 20.1 13 Sudoeste 32 Sudoeste 0 -- -- 55
2020-05-08 20:00:00 21.6 12 Sudoeste 33 Sur 0 -- -- 54
2020-05-08 19:00:00 22 14 Sur 33 Sudoeste 0 -- -- 50
2020-05-08 18:00:00 24.4 12 Sudoeste 33 Sudoeste 0 -- -- 47
2020-05-08 17:00:00 23.7 17 Sudoeste 32 Sudoeste 0 -- -- 49
2020-05-08 16:00:00 21.9 11 Sudoeste 22 Sudoeste 0 -- -- 58
2020-05-08 15:00:00 21.4 9 Sur 18 Sur 0 -- -- 61
2020-05-08 14:00:00 23.2 9 Sudoeste 18 Sudoeste 0 -- -- 57
2020-05-08 13:00:00 21.3 6 Sudeste 18 Sudoeste 0 -- -- 58
2020-05-08 12:00:00 20.7 8 Sur 19 Sudeste 0 -- -- 66
2020-05-08 11:00:00 19.2 11 Sudeste 30 Sudeste 0 -- -- 71
2020-05-08 10:00:00 16.1 20 Sudeste 32 Sudeste 0 -- -- 82
2020-05-08 09:00:00 14.7 6 Nordeste 19 Sudeste 0 -- -- 95
2020-05-08 08:00:00 14.5 13 Sudeste 20 Sudeste 0 -- -- 93
2020-05-08 07:00:00 13.8 8 Este 22 Sudeste 2.4 -- -- 97
2020-05-08 06:00:00 14.2 4 Norte 21 Sur 1 -- -- 95
2020-05-08 05:00:00 14.4 7 Oeste 16 Sur 0 -- -- 93
2020-05-08 04:00:00 14.4 4 Sur 21 Oeste 0.6 -- -- 93
2020-05-08 03:00:00 14.2 5 Oeste 30 Sudeste 7.2 -- -- 90
2020-05-08 02:00:00 17.3 11 Sur 19 Sudeste 0 -- -- 70
2020-05-08 01:00:00 18.4 6 Sudoeste 12 Sur 0 -- -- 61
2020-05-08 00:00:00 18.7 7 Sudoeste 11 Sudoeste 0 -- -- 60
2020-05-07 23:00:00 19.6 12 Sudoeste 21 Sudoeste 0 -- -- 58
2020-05-07 22:00:00 19.7 13 Sudoeste 22 Sur 0 -- -- 57
2020-05-07 21:00:00 20.5 13 Sur 24 Sur 0 -- -- 58
2020-05-07 20:00:00 22.3 10 Sudoeste 18 Sudoeste 0 -- -- 59
2020-05-07 19:00:00 24.1 3 Sudoeste 15 Este 0 -- -- 49
2020-05-07 18:00:00 24.7 8 Este 16 Sudeste 0 -- -- 46
2020-05-07 17:00:00 25.5 10 Este 19 Sudeste 0 -- -- 43
2020-05-07 16:00:00 24.8 10 Sudeste 18 Nordeste 0 -- -- 42
2020-05-07 15:00:00 25.3 6 Nordeste 15 Este 0 -- -- 39
2020-05-07 14:00:00 24.6 9 Nordeste 20 Nordeste 0 -- -- 48
2020-05-07 13:00:00 21.9 12 Nordeste 26 Este 0 -- -- 57
2020-05-07 12:00:00 19.6 14 Este 25 Nordeste 0 -- -- 61
2020-05-07 11:00:00 16.6 13 Este 19 Nordeste 0 -- -- 72
2020-05-07 10:00:00 14.3 3 Nordeste 10 Este 0 -- -- 80
2020-05-07 09:00:00 11.8 3 Nordeste 7 Este 0 -- -- 83
2020-05-07 08:00:00 10.9 6 Este 8 Este 0 -- -- 84
2020-05-07 07:00:00 11 2 Sudeste 11 Este 0 -- -- 81
2020-05-07 06:00:00 11.4 8 Sudeste 9 Sudeste 0 -- -- 80
2020-05-07 05:00:00 11.4 0 Calma 2 Norte 0 -- -- 76
2020-05-07 04:00:00 12.8 4 Este 11 Este 0 -- -- 72
2020-05-07 03:00:00 14 9 Este 12 Este 0 -- -- 63
2020-05-07 02:00:00 14.4 5 Este 9 Este 0 -- -- 61
2020-05-07 01:00:00 14.7 6 Este 8 Nordeste 0 -- -- 62
2020-05-07 00:00:00 15 5 Este 7 Nordeste 0 -- -- 62
2020-05-06 23:00:00 16 4 Noroeste 9 Oeste 0 -- -- 59
2020-05-06 22:00:00 16.9 6 Oeste 13 Oeste 0 -- -- 58
2020-05-06 21:00:00 19.4 6 Oeste 12 Oeste 0 -- -- 52
2020-05-06 20:00:00 21.9 8 Noroeste 19 Oeste 0 -- -- 46
2020-05-06 19:00:00 22.9 9 Oeste 18 Sudoeste 0 -- -- 43
2020-05-06 18:00:00 23.3 6 Sur 19 Oeste 0 -- -- 44
2020-05-06 17:00:00 22.9 10 Oeste 21 Oeste 0 -- -- 42
2020-05-06 16:00:00 23.7 6 Sudeste 16 Este 0 -- -- 41
2020-05-06 15:00:00 21.2 9 Sudoeste 20 Sur 0 -- -- 48
2020-05-06 14:00:00 19.5 7 Sudeste 18 Este 0 -- -- 58
2020-05-06 13:00:00 19.8 7 Este 14 Nordeste 0 -- -- 59
2020-05-06 12:00:00 18 3 Nordeste 9 Norte 0 -- -- 62
2020-05-06 11:00:00 15.3 4 Norte 8 Norte 0 -- -- 71
2020-05-06 10:00:00 13.7 3 Nordeste 6 Noroeste 0 -- -- 78
2020-05-06 09:00:00 11.7 3 Norte 12 Oeste 0 -- -- 85
2020-05-06 08:00:00 10.7 9 Oeste 12 Sudoeste 0 -- -- 89
2020-05-06 07:00:00 10.2 6 Oeste 9 Oeste 0 -- -- 89
2020-05-06 06:00:00 10.6 6 Oeste 9 Oeste 0 -- -- 88
2020-05-06 05:00:00 10.8 4 Oeste 12 Oeste 0 -- -- 87
2020-05-06 04:00:00 11.1 9 Oeste 13 Sudoeste 0 -- -- 85
2020-05-06 03:00:00 10.8 0 Calma 4 Sudeste 0 -- -- 82
2020-05-06 02:00:00 11.7 2 Oeste 17 Sudoeste 0 -- -- 78
2020-05-06 01:00:00 13.3 10 Sudoeste 19 Oeste 0 -- -- 71
2020-05-06 00:00:00 13.5 9 Sudoeste 18 Sudoeste 0 -- -- 68
2020-05-05 23:00:00 14.7 13 Sudoeste 19 Sudoeste 0 -- -- 62
2020-05-05 22:00:00 15.4 10 Sudoeste 14 Sudoeste 0 -- -- 58
2020-05-05 21:00:00 18 9 Sudoeste 21 Sudoeste 0 -- -- 51
2020-05-05 20:00:00 19.9 15 Sudoeste 26 Oeste 0 -- -- 43
2020-05-05 19:00:00 20.5 8 Oeste 28 Oeste 0 -- -- 46
2020-05-05 18:00:00 19.6 17 Oeste 35 Oeste 0 -- -- 48
2020-05-05 17:00:00 19.8 10 Sudoeste 24 Oeste 0 -- -- 49
2020-05-05 16:00:00 18.7 9 Sur 23 Noroeste 0 -- -- 52
2020-05-05 15:00:00 18.4 6 Sudoeste 22 Oeste 0 -- -- 53
2020-05-05 14:00:00 18.9 6 Noroeste 19 Oeste 0 -- -- 57
2020-05-05 13:00:00 16.5 6 Sur 23 Oeste 0 -- -- 58
2020-05-05 12:00:00 16.2 8 Sudoeste 18 Sudeste 0 -- -- 58
2020-05-05 11:00:00 14.7 9 Sur 18 Sur 0 -- -- 70
2020-05-05 10:00:00 12.7 9 Sudoeste 17 Sudoeste 0 -- -- 82
2020-05-05 09:00:00 11.1 9 Sur 16 Sur 0 -- -- 90
2020-05-05 08:00:00 9.5 11 Sur 14 Sur 0 -- -- 94
2020-05-05 07:00:00 9.2 11 Sur 13 Sur 0 -- -- 94
2020-05-05 06:00:00 9.7 10 Sur 12 Sur 0 -- -- 94
2020-05-05 05:00:00 9.6 5 Sur 20 Oeste 0 -- -- 92
2020-05-05 04:00:00 10.9 13 Sudoeste 25 Sudoeste 0 -- -- 88
2020-05-05 03:00:00 11.5 15 Sudoeste 26 Sudoeste 0 -- -- 84
2020-05-05 02:00:00 11.9 16 Sudoeste 31 Sudoeste 0 -- -- 82
2020-05-05 01:00:00 12.7 16 Sudoeste 26 Oeste 0 -- -- 77
2020-05-05 00:00:00 13.4 14 Sudoeste 24 Sur 0 -- -- 67
2020-05-04 23:00:00 14.4 14 Sudoeste 25 Sudoeste 0 -- -- 63
2020-05-04 22:00:00 15.3 11 Sudoeste 33 Sudoeste 0 -- -- 63
2020-05-04 21:00:00 17 18 Sudoeste 38 Sudoeste 0 -- -- 58
2020-05-04 20:00:00 18.4 23 Sudoeste 49 Sudoeste 0 -- -- 53
2020-05-04 19:00:00 19.4 29 Oeste 60 Sudoeste 0 -- -- 56
2020-05-04 18:00:00 21.1 28 Sudoeste 52 Sudoeste 0 -- -- 52
2020-05-04 17:00:00 21.2 28 Sudoeste 59 Sudoeste 0 -- -- 54
2020-05-04 16:00:00 21.5 31 Sudoeste 49 Sudoeste 0 -- -- 46
2020-05-04 15:00:00 21.3 21 Sur 52 Sur 0 -- -- 55
2020-05-04 14:00:00 23.9 30 Sudoeste 51 Sur 0 -- -- 47
2020-05-04 13:00:00 24.9 22 Sudoeste 44 Sudoeste 0 -- -- 45
2020-05-04 12:00:00 22.9 5 Sur 21 Sur 0 -- -- 51
2020-05-04 11:00:00 20.6 3 Norte 8 Oeste 0 -- -- 62
2020-05-04 10:00:00 17.9 6 Noroeste 11 Noroeste 0 -- -- 69
2020-05-04 09:00:00 16.6 2 Noroeste 8 Este 0 -- -- 74
2020-05-04 08:00:00 14.1 2 Este 11 Este 0 -- -- 79
2020-05-04 07:00:00 14.1 6 Este 10 Este 0 -- -- 77
2020-05-04 06:00:00 13.2 5 Nordeste 13 Sudeste 0 -- -- 82
2020-05-04 05:00:00 15.5 11 Sudeste 25 Sudeste 0 -- -- 73
2020-05-04 04:00:00 17.4 17 Sudeste 28 Sudeste 0 -- -- 66
2020-05-04 03:00:00 18.8 18 Sudeste 26 Sur 0 -- -- 61
2020-05-04 02:00:00 18.5 13 Sudeste 20 Sudeste 0 -- -- 65
2020-05-04 01:00:00 18.9 10 Sudeste 15 Sudeste 0 -- -- 64
2020-05-04 00:00:00 19.8 11 Sudeste 17 Sudeste 0 -- -- 64
2020-05-03 23:00:00 20 9 Sudeste 14 Sur 0 -- -- 62
2020-05-03 22:00:00 21.1 9 Sur 14 Sur 0 -- -- 61
2020-05-03 21:00:00 23.5 6 Sudeste 18 Sudoeste 0 -- -- 55
2020-05-03 20:00:00 25.6 10 Sur 23 Sudoeste 0 -- -- 44
2020-05-03 19:00:00 27.2 13 Sudoeste 25 Sudeste 0 -- -- 39
2020-05-03 18:00:00 27.4 11 Sur 29 Sudoeste 0 -- -- 40
2020-05-03 17:00:00 27.1 14 Sur 26 Sur 0 -- -- 40
2020-05-03 16:00:00 26.9 12 Sur 27 Sudoeste 0 -- -- 42
2020-05-03 15:00:00 25.7 10 Sur 25 Sur 0 -- -- 43
2020-05-03 14:00:00 25.1 8 Sudoeste 28 Este 0 -- -- 42
2020-05-03 13:00:00 23.7 9 Nordeste 17 Nordeste 0 -- -- 56
2020-05-03 12:00:00 21.1 9 Nordeste 14 Nordeste 0 -- -- 65
2020-05-03 11:00:00 17.5 6 Nordeste 11 Nordeste 0 -- -- 77
2020-05-03 10:00:00 14.6 5 Nordeste 9 Nordeste 0 -- -- 84
2020-05-03 09:00:00 11.7 0 Calma 3 Nordeste 0 -- -- 91
2020-05-03 08:00:00 9.5 0 Calma 5 Este 0 -- -- 96
2020-05-03 07:00:00 10.2 3 Nordeste 9 Sudeste 0 -- -- 94
2020-05-03 06:00:00 10.3 0 Calma 3 Este 0 -- -- 92
2020-05-03 05:00:00 11.5 0 Calma 2 Este 0 -- -- 90
2020-05-03 04:00:00 11.6 0 Calma 2 Este 0 -- -- 90
2020-05-03 03:00:00 12.8 0 Calma 6 Sudeste 0 -- -- 81
2020-05-03 02:00:00 14 0 Calma 3 Sudeste 0 -- -- 78
2020-05-03 01:00:00 15 2 Oeste 6 Oeste 0 -- -- 74
2020-05-03 00:00:00 15.3 5 Oeste 7 Oeste 0 -- -- 74
2020-05-02 23:00:00 16.4 5 Oeste 10 Sudoeste 0 -- -- 68
2020-05-02 22:00:00 17.2 6 Sudoeste 11 Oeste 0 -- -- 66
2020-05-02 21:00:00 20.3 5 Oeste 14 Noroeste 0 -- -- 58
2020-05-02 20:00:00 22.8 9 Oeste 21 Noroeste 0 -- -- 50
2020-05-02 19:00:00 23 11 Oeste 33 Oeste 0 -- -- 50
2020-05-02 18:00:00 22.8 17 Oeste 29 Oeste 0 -- -- 49
2020-05-02 17:00:00 22.7 15 Oeste 29 Oeste 0 -- -- 51
2020-05-02 16:00:00 21.4 18 Oeste 28 Oeste 0 -- -- 53
2020-05-02 15:00:00 20.9 12 Oeste 24 Oeste 0 -- -- 56
2020-05-02 14:00:00 19 10 Oeste 26 Oeste 0 -- -- 66
2020-05-02 13:00:00 18.6 16 Oeste 28 Oeste 0 -- -- 63
2020-05-02 12:00:00 17.9 12 Noroeste 20 Oeste 0 -- -- 68
2020-05-02 11:00:00 15.5 9 Sudoeste 17 Sudoeste 0 -- -- 76
2020-05-02 10:00:00 14.2 8 Sudoeste 15 Sur 0 -- -- 85
2020-05-02 09:00:00 13 7 Sudoeste 15 Sudoeste 0 -- -- 86
2020-05-02 08:00:00 11.9 7 Sudoeste 13 Sudoeste 0 -- -- 92
2020-05-02 07:00:00 12.1 10 Sudoeste 20 Sudoeste 0 -- -- 90
2020-05-02 06:00:00 11.5 13 Sudoeste 21 Sudoeste 0 -- -- 94
2020-05-02 05:00:00 11.4 13 Sudoeste 20 Sudoeste 0 -- -- 94
2020-05-02 04:00:00 11.9 13 Sudoeste 22 Sudoeste 0 -- -- 92
2020-05-02 03:00:00 11.9 11 Sur 17 Sur 0 -- -- 93
2020-05-02 02:00:00 12.2 9 Sur 13 Sudoeste 0 -- -- 93
2020-05-02 01:00:00 12.6 9 Sudoeste 19 Sudoeste 0 -- -- 91
2020-05-02 00:00:00 13.9 8 Sudoeste 27 Oeste 0 -- -- 87
2020-05-01 23:00:00 14.3 19 Oeste 30 Oeste 0 -- -- 84
2020-05-01 22:00:00 14.9 20 Oeste 31 Oeste 0 -- -- 81
2020-05-01 21:00:00 15.8 19 Oeste 33 Oeste 0 -- -- 78
2020-05-01 20:00:00 17.1 21 Oeste 45 Oeste 0 -- -- 75
2020-05-01 19:00:00 17.9 22 Oeste 40 Oeste 0 -- -- 71
2020-05-01 18:00:00 18.1 25 Oeste 44 Sudoeste 0 -- -- 70
2020-05-01 17:00:00 19.9 24 Oeste 42 Sudoeste 0 -- -- 66
2020-05-01 16:00:00 19.2 19 Sudoeste 44 Sudoeste 0 -- -- 65
2020-05-01 15:00:00 18.9 28 Oeste 47 Sudoeste 0 -- -- 66
2020-05-01 14:00:00 18.1 28 Oeste 43 Oeste 0 -- -- 71
2020-05-01 13:00:00 17 25 Oeste 40 Sudoeste 0 -- -- 74
2020-05-01 12:00:00 16.3 22 Sudoeste 39 Sudoeste 0 -- -- 77
2020-05-01 11:00:00 15.7 27 Oeste 52 Oeste 0 -- -- 78
2020-05-01 10:00:00 14.4 27 Sudoeste 47 Sudoeste 0 -- -- 84
2020-05-01 09:00:00 13.4 25 Sudoeste 46 Sudoeste 0 -- -- 89
2020-05-01 08:00:00 12.6 22 Sudoeste 43 Sudoeste 0 -- -- 92
2020-05-01 07:00:00 12.4 21 Sudoeste 42 Sudoeste 0 -- -- 91
2020-05-01 06:00:00 12.1 25 Sudoeste 45 Sudoeste 0 -- -- 92
2020-05-01 05:00:00 12 25 Sudoeste 44 Sudoeste 0 -- -- 91
2020-05-01 04:00:00 11.9 21 Sudoeste 41 Sudoeste 0 -- -- 91
2020-05-01 03:00:00 11.4 23 Sudoeste 49 Sudoeste 0 -- -- 91
2020-05-01 02:00:00 11.3 24 Sudoeste 41 Sudoeste 0 -- -- 90
2020-05-01 01:00:00 11.1 23 Sudoeste 36 Sudoeste 0 -- -- 91
2020-05-01 00:00:00 11.5 23 Sudoeste 41 Sudoeste 0 -- -- 86
2020-04-30 23:00:00 11.7 20 Sudoeste 37 Sudoeste 0 -- -- 83
2020-04-30 22:00:00 11.9 22 Sudoeste 39 Sudoeste 0 -- -- 83
2020-04-30 21:00:00 12.1 16 Sudoeste 37 Sudoeste 0 -- -- 82
2020-04-30 20:00:00 12.5 22 Sudoeste 39 Sudoeste 0 -- -- 81
2020-04-30 19:00:00 12.4 17 Sudoeste 37 Sudoeste 0 -- -- 80
2020-04-30 18:00:00 12.3 18 Sudoeste 32 Sudoeste 0 -- -- 81
2020-04-30 17:00:00 12.7 21 Sudoeste 36 Sudoeste 0 -- -- 79
2020-04-30 16:00:00 12.4 21 Sudoeste 44 Sudoeste 0 -- -- 81
2020-04-30 15:00:00 12.6 21 Sudoeste 36 Sudoeste 0 -- -- 82
2020-04-30 14:00:00 11.7 17 Sudoeste 32 Oeste 0 -- -- 86
2020-04-30 13:00:00 10.6 19 Sudoeste 37 Sudoeste 0 -- -- 89
2020-04-30 12:00:00 11 20 Oeste 36 Oeste 0 -- -- 82
2020-04-30 11:00:00 11.2 19 Oeste 45 Sudoeste 0 -- -- 85
2020-04-30 10:00:00 8.9 20 Sudoeste 36 Oeste 0.2 -- -- 94
2020-04-30 09:00:00 8.6 17 Oeste 33 Sudoeste 0 -- -- 92
2020-04-30 08:00:00 8.1 17 Sudoeste 34 Sudoeste 0 -- -- 93
2020-04-30 07:00:00 8 17 Sudoeste 30 Sudoeste 0 -- -- 95
2020-04-30 06:00:00 8.2 20 Sudoeste 44 Oeste 0.2 -- -- 93
2020-04-30 05:00:00 8.4 18 Oeste 32 Sudoeste 0.8 -- -- 96
2020-04-30 04:00:00 9.1 19 Sudoeste 36 Sudoeste 0 -- -- 88
2020-04-30 03:00:00 9.3 21 Sudoeste 33 Sudoeste 0 -- -- 87
2020-04-30 02:00:00 9.1 15 Sudoeste 33 Sudoeste 0 -- -- 88
2020-04-30 01:00:00 9.3 14 Sudoeste 30 Sudoeste 0 -- -- 85
2020-04-30 00:00:00 8.6 13 Sudoeste 22 Sudoeste 0 -- -- 84
2020-04-29 23:00:00 9.7 11 Sudoeste 31 Sudoeste 0 -- -- 78
2020-04-29 22:00:00 10.9 21 Sudoeste 36 Sudoeste 0 -- -- 74
2020-04-29 21:00:00 11.7 26 Oeste 50 Oeste 0 -- -- 69
2020-04-29 20:00:00 12.8 27 Oeste 48 Oeste 0 -- -- 67
2020-04-29 19:00:00 14.5 26 Oeste 46 Oeste 0 -- -- 65
2020-04-29 18:00:00 13.3 27 Sudoeste 50 Oeste 0 -- -- 69
2020-04-29 17:00:00 14.9 32 Sudoeste 57 Sudoeste 0 -- -- 67
2020-04-29 16:00:00 13.7 26 Sudoeste 50 Sudoeste 0 -- -- 77
2020-04-29 15:00:00 11.2 26 Sudoeste 44 Sudoeste 0.2 -- -- 90
2020-04-29 14:00:00 10.5 23 Sudoeste 45 Sudoeste 0 -- -- 90
2020-04-29 13:00:00 11.4 25 Sudoeste 51 Sudoeste 0 -- -- 80
2020-04-29 12:00:00 13.5 24 Sudoeste 45 Sudoeste 0 -- -- 67
2020-04-29 11:00:00 11.3 22 Sudoeste 43 Sur 0 -- -- 75
2020-04-29 10:00:00 10.7 16 Sudoeste 30 Sudoeste 0 -- -- 77
2020-04-29 09:00:00 8.6 12 Sur 28 Sudoeste 0 -- -- 87
2020-04-29 08:00:00 7.4 13 Sur 22 Sudoeste 0 -- -- 91
2020-04-29 07:00:00 7.6 10 Sudoeste 25 Sudoeste 0 -- -- 90
2020-04-29 06:00:00 8.1 13 Sudoeste 26 Sur 0 -- -- 90
2020-04-29 05:00:00 8.1 13 Sudoeste 24 Sudoeste 0 -- -- 90
2020-04-29 04:00:00 8.1 13 Sudoeste 21 Sur 0 -- -- 92
2020-04-29 03:00:00 8.2 8 Sur 21 Sudoeste 0 -- -- 91
2020-04-29 02:00:00 8.5 12 Sudoeste 24 Sudoeste 0 -- -- 88
2020-04-29 01:00:00 9.2 14 Sudoeste 24 Sudoeste 0 -- -- 85
2020-04-29 00:00:00 9.7 16 Oeste 24 Oeste 0 -- -- 82
2020-04-28 23:00:00 10.6 13 Oeste 24 Sudoeste 0 -- -- 72
2020-04-28 22:00:00 10.7 11 Oeste 25 Sudoeste 0 -- -- 70
2020-04-28 21:00:00 11.5 15 Oeste 32 Noroeste 0 -- -- 66
2020-04-28 20:00:00 12.7 21 Oeste 36 Oeste 0 -- -- 61
2020-04-28 19:00:00 13.2 22 Oeste 44 Oeste 0 -- -- 58
2020-04-28 18:00:00 15.2 24 Oeste 39 Oeste 0 -- -- 50
2020-04-28 17:00:00 14.9 26 Oeste 41 Oeste 0 -- -- 57
2020-04-28 16:00:00 13.9 24 Oeste 38 Oeste 0 -- -- 55
2020-04-28 15:00:00 13 19 Oeste 36 Oeste 0 -- -- 63
2020-04-28 14:00:00 13.7 18 Oeste 35 Sudoeste 0 -- -- 61
2020-04-28 13:00:00 11.3 13 Oeste 33 Oeste 0 -- -- 70
2020-04-28 12:00:00 10.9 19 Oeste 30 Oeste 0 -- -- 72
2020-04-28 11:00:00 10.1 19 Oeste 28 Oeste 0 -- -- 76
2020-04-28 10:00:00 8.6 11 Oeste 23 Oeste 0 -- -- 88
2020-04-28 09:00:00 7.6 10 Sudoeste 19 Sur 0 -- -- 91
2020-04-28 08:00:00 6.4 11 Sudoeste 20 Sudoeste 0 -- -- 94
2020-04-28 07:00:00 6.5 11 Sudoeste 27 Sudoeste 0.2 -- -- 94
2020-04-28 06:00:00 6.4 13 Sudoeste 28 Sur 0 -- -- 93
2020-04-28 05:00:00 6.2 15 Sudoeste 25 Sudoeste 0 -- -- 92
2020-04-28 04:00:00 6.8 12 Sudoeste 22 Sudoeste 0 -- -- 87
2020-04-28 03:00:00 7.2 12 Sudoeste 25 Sudoeste 0 -- -- 82
2020-04-28 02:00:00 7.5 12 Sudoeste 24 Oeste 0 -- -- 83
2020-04-28 01:00:00 8.4 15 Oeste 21 Sudoeste 0 -- -- 78
2020-04-28 00:00:00 9.4 10 Oeste 30 Oeste 0 -- -- 75
2020-04-27 23:00:00 10 13 Oeste 22 Oeste 0 -- -- 75
2020-04-27 22:00:00 10.1 13 Oeste 27 Oeste 0 -- -- 73
2020-04-27 21:00:00 11.1 11 Oeste 31 Oeste 0 -- -- 72
2020-04-27 20:00:00 11.4 20 Oeste 31 Oeste 0 -- -- 72
2020-04-27 19:00:00 13.8 18 Noroeste 42 Oeste 0 -- -- 66
2020-04-27 18:00:00 15.1 24 Oeste 34 Oeste 0 -- -- 56
2020-04-27 17:00:00 14.1 23 Oeste 37 Oeste 0 -- -- 58
2020-04-27 16:00:00 12.8 14 Sudoeste 29 Sudoeste 0 -- -- 64
2020-04-27 15:00:00 11.7 16 Sudoeste 32 Oeste 0 -- -- 73
2020-04-27 14:00:00 12 15 Oeste 24 Oeste 0 -- -- 72
2020-04-27 13:00:00 12.8 10 Oeste 22 Oeste 0 -- -- 71
2020-04-27 12:00:00 11.1 11 Oeste 22 Oeste 0 -- -- 76
2020-04-27 11:00:00 10.2 13 Oeste 20 Oeste 0 -- -- 83
2020-04-27 10:00:00 8.7 8 Sudoeste 17 Oeste 0.4 -- -- 91
2020-04-27 09:00:00 8.5 8 Sudoeste 17 Oeste 0 -- -- 90
2020-04-27 08:00:00 8.1 8 Sudoeste 14 Sudoeste 0 -- -- 91
2020-04-27 07:00:00 8.2 7 Sudoeste 13 Sudoeste 0.2 -- -- 94
2020-04-27 06:00:00 8.5 9 Sudoeste 18 Sudoeste 0 -- -- 93
2020-04-27 05:00:00 8.7 9 Oeste 18 Sudoeste 0 -- -- 89
2020-04-27 04:00:00 8.9 5 Sudoeste 11 Oeste 0 -- -- 89
2020-04-27 03:00:00 9.2 6 Sudoeste 21 Sudoeste 0 -- -- 86
2020-04-27 02:00:00 9.6 11 Oeste 19 Oeste 0 -- -- 84
2020-04-27 01:00:00 10.1 13 Oeste 21 Oeste 0 -- -- 80
2020-04-27 00:00:00 10.4 13 Sudoeste 19 Sudoeste 0 -- -- 76
2020-04-26 23:00:00 10.6 11 Sudoeste 18 Sudoeste 0 -- -- 74
2020-04-26 22:00:00 11.1 13 Oeste 21 Sudoeste 0 -- -- 72
2020-04-26 21:00:00 11.8 13 Oeste 22 Sudoeste 0 -- -- 70
2020-04-26 20:00:00 12.6 10 Oeste 19 Oeste 0 -- -- 69
2020-04-26 19:00:00 13 11 Oeste 24 Oeste 0 -- -- 69
2020-04-26 18:00:00 13 16 Oeste 26 Oeste 0 -- -- 70
2020-04-26 17:00:00 13.4 16 Oeste 27 Oeste 0 -- -- 70
2020-04-26 16:00:00 14.1 15 Oeste 26 Oeste 0 -- -- 71
2020-04-26 15:00:00 14 12 Oeste 22 Oeste 0 -- -- 71
2020-04-26 14:00:00 14.4 12 Oeste 21 Oeste 0 -- -- 71
2020-04-26 13:00:00 12.7 9 Oeste 17 Sudoeste 0.2 -- -- 77
2020-04-26 12:00:00 11.4 8 Sudoeste 13 Sudoeste 0 -- -- 82
2020-04-26 11:00:00 11.1 6 Sudoeste 13 Sudoeste 0 -- -- 83
2020-04-26 10:00:00 -- 0 Calma -- -- 0 -- -- --
2020-04-26 09:00:00 8.9 9 Sudoeste 17 Sudoeste 0 -- -- 91
2020-04-26 08:00:00 9 9 Sudoeste 17 Sudoeste 0 -- -- 91
2020-04-26 07:00:00 8.9 9 Sudoeste 15 Sudoeste 0 -- -- 93
2020-04-26 06:00:00 9 7 Sudoeste 17 Sudoeste 0 -- -- 94
2020-04-26 05:00:00 9.3 12 Sudoeste 17 Sudoeste 0 -- -- 93
2020-04-26 04:00:00 9.5 12 Sudoeste 22 Sudoeste 0 -- -- 93
2020-04-26 03:00:00 9.9 14 Sudoeste 22 Sudoeste 0 -- -- 93
2020-04-26 02:00:00 10.1 12 Sur 20 Sudoeste 0 -- -- 95
2020-04-26 01:00:00 10.6 14 Sudoeste 20 Sudoeste 0 -- -- 92
2020-04-26 00:00:00 11.2 10 Sudoeste 17 Sudoeste 0 -- -- 90